createdAt,value
2022-11-21T00:00:41.299Z,0.46
2022-11-21T00:03:10.197Z,0.36
2022-11-21T00:05:40.519Z,0.22
2022-11-21T00:08:07.962Z,0.30
2022-11-21T00:10:36.558Z,0.13
2022-11-21T00:13:03.716Z,0.11
2022-11-21T00:15:30.482Z,0.02
2022-11-21T00:17:57.148Z,0.16
2022-11-21T00:20:23.856Z,0.29
2022-11-21T00:22:50.651Z,0.28
2022-11-21T00:25:17.243Z,0.32
2022-11-21T00:27:43.901Z,0.40
2022-11-21T00:30:11.424Z,0.30
2022-11-21T00:32:38.152Z,0.33
2022-11-21T00:35:06.662Z,0.46
2022-11-21T00:37:33.950Z,0.49
2022-11-21T00:40:00.825Z,0.45
2022-11-21T00:42:27.471Z,0.49
2022-11-21T00:44:54.093Z,0.42
2022-11-21T00:47:20.763Z,0.37
2022-11-21T00:49:47.472Z,0.29
2022-11-21T00:52:14.251Z,0.36
2022-11-21T00:54:40.991Z,0.25
2022-11-21T00:57:07.667Z,0.20
2022-11-21T00:59:34.495Z,0.21
2022-11-21T01:02:01.101Z,0.26
2022-11-21T01:04:34.744Z,0.38
2022-11-21T01:07:01.593Z,0.38
2022-11-21T01:09:28.847Z,0.43
2022-11-21T01:11:56.385Z,0.50
2022-11-21T01:14:23.485Z,0.48
2022-11-21T01:16:50.233Z,0.46
2022-11-21T01:19:16.834Z,0.47
2022-11-21T01:21:43.538Z,0.46
2022-11-21T01:24:11.808Z,0.46
2022-11-21T01:26:38.785Z,0.43
2022-11-21T01:29:06.958Z,0.28
2022-11-21T01:31:33.686Z,0.25
2022-11-21T01:34:00.909Z,0.40
2022-11-21T01:36:32.972Z,0.38
2022-11-21T01:39:02.100Z,0.32
2022-11-21T01:41:37.555Z,0.32
2022-11-21T01:44:23.032Z,0.41
2022-11-21T01:46:50.890Z,0.33
2022-11-21T01:49:22.596Z,0.27
2022-11-21T01:52:09.930Z,0.38
2022-11-21T01:54:44.799Z,0.33
2022-11-21T01:57:17.999Z,0.42
2022-11-21T02:00:10.773Z,0.52
2022-11-21T02:02:40.778Z,0.60
2022-11-21T02:05:09.830Z,0.62
2022-11-21T02:07:40.051Z,0.68
2022-11-21T02:10:07.760Z,0.75
2022-11-21T02:12:39.792Z,0.79
2022-11-21T02:15:07.171Z,0.79
2022-11-21T02:17:34.033Z,0.73
2022-11-21T02:20:02.977Z,0.56
2022-11-21T02:22:35.569Z,0.54
2022-11-21T02:25:09.992Z,0.55
2022-11-21T02:27:36.730Z,0.54
2022-11-21T02:30:05.614Z,0.61
2022-11-21T02:32:37.955Z,0.57
2022-11-21T02:35:05.331Z,0.64
2022-11-21T02:37:32.491Z,0.75
2022-11-21T02:40:02.355Z,0.82
2022-11-21T02:42:33.604Z,0.77
2022-11-21T02:45:17.022Z,0.68
2022-11-21T02:47:44.142Z,0.71
2022-11-21T02:50:16.382Z,0.90
2022-11-21T02:52:43.058Z,0.53
2022-11-21T02:55:11.692Z,0.63
2022-11-21T02:57:39.571Z,0.67
2022-11-21T03:00:07.451Z,0.80
2022-11-21T03:02:34.199Z,0.85
2022-11-21T03:05:01.601Z,0.93
2022-11-21T03:07:28.325Z,0.85
2022-11-21T03:09:55.092Z,0.75
2022-11-21T03:12:21.751Z,0.86
2022-11-21T03:14:48.513Z,0.75
2022-11-21T03:17:15.180Z,0.82
2022-11-21T03:19:41.961Z,0.84
2022-11-21T03:22:09.017Z,0.87
2022-11-21T03:24:35.749Z,0.82
2022-11-21T03:27:02.423Z,0.74
2022-11-21T03:29:29.132Z,0.79
2022-11-21T03:31:55.743Z,0.78
2022-11-21T03:34:22.501Z,0.79
2022-11-21T03:36:49.119Z,0.83
2022-11-21T03:39:15.736Z,0.92
2022-11-21T03:41:42.439Z,0.98
2022-11-21T03:44:11.234Z,0.86
2022-11-21T03:46:40.720Z,0.86
2022-11-21T03:49:08.974Z,0.87
2022-11-21T03:51:36.262Z,0.92
2022-11-21T03:54:03.472Z,0.85
2022-11-21T03:56:30.600Z,0.81
2022-11-21T03:58:57.781Z,0.80
2022-11-21T04:01:25.561Z,0.87
2022-11-21T04:03:52.263Z,0.89
2022-11-21T04:06:21.019Z,0.76
2022-11-21T04:08:48.302Z,0.76
2022-11-21T04:11:15.177Z,0.83
2022-11-21T04:13:42.030Z,0.68
2022-11-21T04:16:09.071Z,0.70
2022-11-21T04:18:36.118Z,0.62
2022-11-21T04:21:05.748Z,0.72
2022-11-21T04:23:32.578Z,0.63
2022-11-21T04:25:59.545Z,0.68
2022-11-21T04:28:26.560Z,0.74
2022-11-21T04:30:55.036Z,0.80
2022-11-21T04:33:22.032Z,0.84
2022-11-21T04:35:48.881Z,0.71
2022-11-21T04:38:15.630Z,0.77
2022-11-21T04:40:44.333Z,0.81
2022-11-21T04:43:11.100Z,0.75
2022-11-21T04:45:37.858Z,0.66
2022-11-21T04:48:04.658Z,0.79
2022-11-21T04:50:31.370Z,0.76
2022-11-21T04:52:58.164Z,0.87
2022-11-21T04:55:29.355Z,0.71
2022-11-21T04:57:56.165Z,0.91
2022-11-21T05:00:24.623Z,0.79
2022-11-21T05:02:51.689Z,0.78
2022-11-21T05:05:18.585Z,0.82
2022-11-21T05:07:45.278Z,0.84
2022-11-21T05:10:12.218Z,0.91
2022-11-21T05:12:59.147Z,0.97
2022-11-21T05:15:25.860Z,0.84
2022-11-21T05:17:52.516Z,0.87
2022-11-21T05:20:19.368Z,0.85
2022-11-21T05:22:49.952Z,0.85
2022-11-21T05:25:16.845Z,0.92
2022-11-21T05:27:43.464Z,0.89
2022-11-21T05:30:11.411Z,0.89
2022-11-21T05:32:37.976Z,0.87
2022-11-21T05:35:04.731Z,0.92
2022-11-21T05:37:31.377Z,0.88
2022-11-21T05:39:58.069Z,0.86
2022-11-21T05:42:44.669Z,0.90
2022-11-21T05:45:11.244Z,0.91
2022-11-21T05:47:37.885Z,0.90
2022-11-21T05:50:05.263Z,0.83
2022-11-21T05:52:31.869Z,0.84
2022-11-21T05:54:58.475Z,0.80
2022-11-21T05:57:25.096Z,0.93
2022-11-21T05:59:51.723Z,0.92
2022-11-21T06:02:37.064Z,0.91
2022-11-21T06:05:04.128Z,0.98
2022-11-21T06:07:30.871Z,1.02
2022-11-21T06:09:57.619Z,0.93
2022-11-21T06:12:25.600Z,0.94
2022-11-21T06:14:52.789Z,0.98
2022-11-21T06:17:19.578Z,0.95
2022-11-21T06:19:46.331Z,0.96
2022-11-21T06:22:13.078Z,0.92
2022-11-21T06:24:39.879Z,0.91
2022-11-21T06:27:06.500Z,0.97
2022-11-21T06:29:33.262Z,0.96
2022-11-21T06:31:59.923Z,0.96
2022-11-21T06:34:27.522Z,1.08
2022-11-21T06:36:54.498Z,1.14
2022-11-21T06:39:21.221Z,1.17
2022-11-21T06:41:51.389Z,1.14
2022-11-21T06:44:18.880Z,1.17
2022-11-21T06:46:50.792Z,1.17
2022-11-21T06:49:18.226Z,1.18
2022-11-21T06:51:45.041Z,0.97
2022-11-21T06:54:16.464Z,1.04
2022-11-21T06:56:43.657Z,0.98
2022-11-21T06:59:10.467Z,0.97
2022-11-21T07:01:37.292Z,1.04
2022-11-21T07:04:04.272Z,1.11
2022-11-21T07:06:31.038Z,1.07
2022-11-21T07:09:31.009Z,0.97
2022-11-21T07:11:44.679Z,1.02
2022-11-21T07:14:11.849Z,1.03
2022-11-21T07:16:38.869Z,1.02
2022-11-21T07:19:05.767Z,1.03
2022-11-21T07:21:32.700Z,1.10
2022-11-21T07:23:59.888Z,1.08
2022-11-21T07:26:26.610Z,1.20
2022-11-21T07:28:53.291Z,1.25
2022-11-21T07:31:20.013Z,1.08
2022-11-21T07:33:47.630Z,1.22
2022-11-21T07:36:14.401Z,1.27
2022-11-21T07:38:42.044Z,1.32
2022-11-21T07:41:09.669Z,1.36
2022-11-21T07:43:36.400Z,1.38
2022-11-21T07:46:03.264Z,1.52
2022-11-21T07:48:29.924Z,1.59
2022-11-21T07:50:56.631Z,1.55
2022-11-21T07:53:24.177Z,1.57
2022-11-21T07:55:51.025Z,1.82
2022-11-21T07:58:18.081Z,2.69
2022-11-21T08:00:44.972Z,3.67
2022-11-21T08:03:13.159Z,4.13
2022-11-21T08:05:41.654Z,4.12
2022-11-21T08:08:08.952Z,5.05
2022-11-21T08:10:40.466Z,5.28
2022-11-21T08:13:07.254Z,5.55
2022-11-21T08:15:34.160Z,5.72
2022-11-21T08:18:26.530Z,5.94
2022-11-21T08:20:53.263Z,6.06
2022-11-21T08:23:19.958Z,5.83
2022-11-21T08:25:46.651Z,4.85
2022-11-21T08:28:13.562Z,4.62
2022-11-21T08:30:40.865Z,4.18
2022-11-21T08:33:07.920Z,3.87
2022-11-21T08:35:37.777Z,3.66
2022-11-21T08:38:04.892Z,3.60
2022-11-21T08:40:32.382Z,3.54
2022-11-21T08:43:04.212Z,3.54
2022-11-21T08:45:31.540Z,3.30
2022-11-21T08:47:58.404Z,3.24
2022-11-21T08:50:25.394Z,3.11
2022-11-21T08:52:52.372Z,2.87
2022-11-21T08:55:19.142Z,2.77
2022-11-21T08:57:45.853Z,2.77
2022-11-21T09:00:13.704Z,2.81
2022-11-21T09:02:40.380Z,2.94
2022-11-21T09:05:07.562Z,2.87
2022-11-21T09:07:34.371Z,3.08
2022-11-21T09:10:01.131Z,3.47
2022-11-21T09:12:27.853Z,4.10
2022-11-21T09:15:23.732Z,4.15
2022-11-21T09:18:06.707Z,3.78
2022-11-21T09:20:38.507Z,3.93
2022-11-21T09:23:10.781Z,3.94
2022-11-21T09:25:37.773Z,4.04
2022-11-21T09:28:06.103Z,3.46
2022-11-21T09:30:33.312Z,3.72
2022-11-21T09:33:01.718Z,3.59
2022-11-21T09:35:28.780Z,3.61
2022-11-21T09:37:55.594Z,3.76
2022-11-21T09:40:22.814Z,3.73
2022-11-21T09:43:17.442Z,3.70
2022-11-21T09:45:50.100Z,3.69
2022-11-21T09:48:25.192Z,3.57
2022-11-21T09:50:54.718Z,3.66
2022-11-21T09:53:26.614Z,4.05
2022-11-21T09:55:59.362Z,3.88
2022-11-21T09:59:11.659Z,3.73
2022-11-21T10:01:38.909Z,3.71
2022-11-21T10:04:05.836Z,3.88
2022-11-21T10:06:42.628Z,3.85
2022-11-21T10:09:48.172Z,4.02
2022-11-21T10:12:37.069Z,3.68
2022-11-21T10:15:39.321Z,3.72
2022-11-21T10:18:22.385Z,3.70
2022-11-21T10:20:58.240Z,3.70
2022-11-21T10:23:54.150Z,4.05
2022-11-21T10:27:02.451Z,3.97
2022-11-21T10:29:35.059Z,4.09
2022-11-21T10:32:13.577Z,4.06
2022-11-21T10:34:40.561Z,4.10
2022-11-21T10:37:37.592Z,4.10
2022-11-21T10:40:35.880Z,4.24
2022-11-21T10:43:27.663Z,4.24
2022-11-21T10:45:54.793Z,4.23
2022-11-21T10:48:21.590Z,4.16
2022-11-21T10:51:12.999Z,4.13
2022-11-21T10:54:03.244Z,4.05
2022-11-21T10:56:33.815Z,4.18
2022-11-21T10:59:12.628Z,4.26
2022-11-21T11:01:39.506Z,4.23
2022-11-21T11:04:29.067Z,4.35
2022-11-21T11:06:57.494Z,4.27
2022-11-21T11:09:24.202Z,4.24
2022-11-21T11:11:51.000Z,4.35
2022-11-21T11:14:29.293Z,4.51
2022-11-21T11:16:56.121Z,4.53
2022-11-21T11:19:35.463Z,4.43
2022-11-21T11:22:05.329Z,4.55
2022-11-21T11:24:32.128Z,4.72
2022-11-21T11:27:00.752Z,4.75
2022-11-21T11:29:32.391Z,4.74
2022-11-21T11:31:59.190Z,4.77
2022-11-21T11:34:28.331Z,4.59
2022-11-21T11:37:13.920Z,4.76
2022-11-21T11:39:50.881Z,4.77
2022-11-21T11:42:39.527Z,4.81
2022-11-21T11:45:30.991Z,4.92
2022-11-21T11:48:23.712Z,4.95
2022-11-21T11:50:57.918Z,5.01
2022-11-21T11:53:32.336Z,5.44
2022-11-21T11:56:19.721Z,5.53
2022-11-21T11:58:50.349Z,5.74
2022-11-21T12:01:20.024Z,5.47
2022-11-21T12:04:11.341Z,5.45
2022-11-21T12:07:31.437Z,5.50
2022-11-21T12:09:41.390Z,5.36
2022-11-21T12:12:17.301Z,5.87
2022-11-21T12:15:11.601Z,6.13
2022-11-21T12:17:48.781Z,6.17
2022-11-21T12:20:20.132Z,6.24
2022-11-21T12:22:47.872Z,6.11
2022-11-21T12:25:15.052Z,6.27
2022-11-21T12:27:42.849Z,6.10
2022-11-21T12:30:20.673Z,6.21
2022-11-21T12:32:57.102Z,6.29
2022-11-21T12:35:48.761Z,6.35
2022-11-21T12:38:27.830Z,6.43
2022-11-21T12:41:32.021Z,6.63
2022-11-21T12:44:24.479Z,6.60
2022-11-21T12:47:28.939Z,6.49
2022-11-21T12:50:38.017Z,6.37
2022-11-21T12:53:32.018Z,6.44
2022-11-21T12:56:06.692Z,6.49
2022-11-21T12:58:37.328Z,6.33
2022-11-21T13:01:49.698Z,6.18
2022-11-21T13:04:20.760Z,6.28
2022-11-21T13:06:49.090Z,6.37
2022-11-21T13:09:19.317Z,6.44
2022-11-21T13:12:04.123Z,6.45
2022-11-21T13:15:09.041Z,6.39
2022-11-21T13:17:47.464Z,6.29
2022-11-21T13:20:19.904Z,6.19
2022-11-21T13:22:47.164Z,6.09
2022-11-21T13:25:32.259Z,6.20
2022-11-21T13:28:14.370Z,6.01
2022-11-21T13:30:54.152Z,6.21
2022-11-21T13:33:36.284Z,5.90
2022-11-21T13:36:06.926Z,5.87
2022-11-21T13:38:56.552Z,5.86
2022-11-21T13:41:54.132Z,5.87
2022-11-21T13:44:33.014Z,5.76
2022-11-21T13:47:09.522Z,6.12
2022-11-21T13:50:05.762Z,6.09
2022-11-21T13:53:17.047Z,5.79
2022-11-21T13:56:03.781Z,5.82
2022-11-21T13:59:08.243Z,6.08
2022-11-21T14:02:02.371Z,6.04
2022-11-21T14:04:44.749Z,5.86
2022-11-21T14:07:24.712Z,5.75
2022-11-21T14:09:53.094Z,5.99
2022-11-21T14:12:44.554Z,5.80
2022-11-21T14:15:24.766Z,6.16
2022-11-21T14:17:54.000Z,6.05
2022-11-21T14:20:26.870Z,6.16
2022-11-21T14:23:14.617Z,6.16
2022-11-21T14:25:41.286Z,5.79
2022-11-21T14:28:24.581Z,5.61
2022-11-21T14:30:58.236Z,5.43
2022-11-21T14:33:27.351Z,5.23
2022-11-21T14:36:09.172Z,5.27
2022-11-21T14:38:42.127Z,5.04
2022-11-21T14:41:27.558Z,4.90
2022-11-21T14:44:01.461Z,4.93
2022-11-21T14:46:36.371Z,4.92
2022-11-21T14:49:18.613Z,4.78
2022-11-21T14:52:01.559Z,4.68
2022-11-21T14:54:32.075Z,4.69
2022-11-21T14:57:01.094Z,4.40
2022-11-21T14:59:33.051Z,4.29
2022-11-21T15:02:07.732Z,4.28
2022-11-21T15:04:36.494Z,4.23
2022-11-21T15:07:03.921Z,4.11
2022-11-21T15:10:26.578Z,4.06
2022-11-21T15:12:47.999Z,4.05
2022-11-21T15:15:25.628Z,3.98
2022-11-21T15:21:01.489Z,3.77
2022-11-21T15:23:30.805Z,3.73
2022-11-21T15:26:01.204Z,3.70
2022-11-21T15:28:29.364Z,3.65
2022-11-21T15:31:18.438Z,3.54
2022-11-21T15:36:42.562Z,3.40
2022-11-21T15:39:27.132Z,3.27
2022-11-21T15:41:53.852Z,3.29
2022-11-21T15:44:22.420Z,3.24
2022-11-21T15:46:51.739Z,3.09
2022-11-21T15:49:32.874Z,2.82
2022-11-21T15:52:09.653Z,2.88
2022-11-21T15:54:36.977Z,2.79
2022-11-21T15:57:03.748Z,2.33
2022-11-21T15:57:15.347Z,3.91
2022-11-21T15:59:31.043Z,2.77
2022-11-21T16:01:58.107Z,2.60
2022-11-21T16:04:26.155Z,2.38
2022-11-21T16:06:54.237Z,2.31
2022-11-21T16:09:20.922Z,2.39
2022-11-21T16:11:47.630Z,2.42
2022-11-21T16:14:15.853Z,2.51
2022-11-21T16:16:44.026Z,2.57
2022-11-21T16:19:14.407Z,2.34
2022-11-21T16:21:41.433Z,2.35
2022-11-21T16:24:08.421Z,2.21
2022-11-21T16:26:35.272Z,2.17
2022-11-21T16:29:05.450Z,2.13
2022-11-21T16:31:32.602Z,2.04
2022-11-21T16:34:00.676Z,1.96
2022-11-21T16:36:29.835Z,2.05
2022-11-21T16:39:00.597Z,1.95
2022-11-21T16:41:29.270Z,1.91
2022-11-21T16:43:56.141Z,2.01
2022-11-21T16:46:24.622Z,1.87
2022-11-21T16:48:59.536Z,1.78
2022-11-21T16:51:26.711Z,1.83
2022-11-21T16:53:53.501Z,1.91
2022-11-21T16:56:20.310Z,1.69
2022-11-21T16:58:47.183Z,1.55
2022-11-21T17:01:19.371Z,1.52
2022-11-21T17:03:47.535Z,1.52
2022-11-21T17:06:19.439Z,1.53
2022-11-21T17:08:47.161Z,1.37
2022-11-21T17:11:34.321Z,1.31
2022-11-21T17:14:04.177Z,1.24
2022-11-21T17:16:31.686Z,1.20
2022-11-21T17:19:01.037Z,1.15
2022-11-21T17:21:28.515Z,1.21
2022-11-21T17:23:55.490Z,1.26
2022-11-21T17:26:24.858Z,1.22
2022-11-21T17:28:56.647Z,1.13
2022-11-21T17:31:24.020Z,1.10
2022-11-21T17:33:51.937Z,1.17
2022-11-21T17:36:28.937Z,1.14
2022-11-21T17:38:55.641Z,1.11
2022-11-21T17:41:23.868Z,1.14
2022-11-21T17:43:54.452Z,1.12
2022-11-21T17:46:21.306Z,1.20
2022-11-21T17:48:54.927Z,1.17
2022-11-21T17:51:26.587Z,1.16
2022-11-21T17:53:53.958Z,1.00
2022-11-21T17:56:25.776Z,1.01
2022-11-21T17:58:52.914Z,0.93
2022-11-21T18:01:20.560Z,0.66
2022-11-21T18:03:48.697Z,0.54
2022-11-21T18:06:17.248Z,0.48
2022-11-21T18:08:45.719Z,0.52
2022-11-21T18:11:16.470Z,0.37
2022-11-21T18:13:43.998Z,0.41
2022-11-21T18:16:13.560Z,0.20
2022-11-21T18:18:40.751Z,0.30
2022-11-21T18:21:09.810Z,0.39
2022-11-21T18:23:36.860Z,0.37
2022-11-21T18:26:21.250Z,0.57
2022-11-21T18:29:13.544Z,0.55
2022-11-21T18:31:42.950Z,0.60
2022-11-21T18:34:10.415Z,0.66
2022-11-21T18:36:37.921Z,0.62
2022-11-21T18:39:10.481Z,0.55
2022-11-21T18:41:40.633Z,0.43
2022-11-21T18:44:07.703Z,0.39
2022-11-21T18:46:36.739Z,0.46
2022-11-21T18:49:06.902Z,0.40
2022-11-21T18:51:34.719Z,0.44
2022-11-21T18:54:05.414Z,0.38
2022-11-21T18:56:32.281Z,0.29
2022-11-21T18:58:59.555Z,0.21
2022-11-21T19:01:28.917Z,0.25
2022-11-21T19:03:56.375Z,0.28
2022-11-21T19:06:24.531Z,0.28
2022-11-21T19:08:53.471Z,0.20
2022-11-21T19:11:21.261Z,0.04
2022-11-21T19:13:48.945Z,0.12
2022-11-21T19:16:21.001Z,0.04
2022-11-21T19:19:05.374Z,0.14
2022-11-21T19:21:39.106Z,0.05
2022-11-21T19:24:07.212Z,-0.05
2022-11-21T19:26:34.097Z,-0.11
2022-11-21T19:29:00.922Z,-0.21
2022-11-21T19:31:28.057Z,-0.41
2022-11-21T19:33:54.868Z,-0.24
2022-11-21T19:36:23.259Z,-0.24
2022-11-21T19:38:51.542Z,-0.28
2022-11-21T19:41:30.748Z,-0.18
2022-11-21T19:43:59.401Z,-0.15
2022-11-21T19:46:32.505Z,-0.16
2022-11-21T19:48:59.422Z,-0.34
2022-11-21T19:51:37.850Z,-0.44
2022-11-21T19:54:06.268Z,-0.41
2022-11-21T19:56:33.419Z,-0.51
2022-11-21T19:59:00.600Z,-0.45
2022-11-21T20:01:29.606Z,-0.42
2022-11-21T20:04:01.974Z,-0.55
2022-11-21T20:06:37.127Z,-0.64
2022-11-21T20:09:11.143Z,-0.69
2022-11-21T20:11:39.880Z,-0.75
2022-11-21T20:14:07.033Z,-0.65
2022-11-21T20:16:38.422Z,-0.50
2022-11-21T20:19:15.421Z,-0.49
2022-11-21T20:21:43.309Z,-0.58
2022-11-21T20:24:11.149Z,-0.75
2022-11-21T20:26:39.802Z,-0.65
2022-11-21T20:29:07.154Z,-0.74
2022-11-21T20:31:35.892Z,-0.74
2022-11-21T20:34:07.324Z,-0.62
2022-11-21T20:36:36.735Z,-0.56
2022-11-21T20:39:25.722Z,-0.57
2022-11-21T20:41:52.418Z,-0.60
2022-11-21T20:47:10.203Z,-0.50
2022-11-21T20:49:37.200Z,-0.64
2022-11-21T21:52:08.391Z,-1.24
2022-11-21T21:54:35.108Z,-1.16
2022-11-21T21:57:01.902Z,-1.08
2022-11-21T21:59:28.656Z,-1.29
2022-11-21T22:01:55.298Z,-1.36
2022-11-21T22:04:22.024Z,-1.36
2022-11-21T22:06:48.571Z,-1.32
2022-11-21T22:09:15.251Z,-1.40
2022-11-21T22:11:41.853Z,-1.41
2022-11-21T22:14:13.225Z,-1.41
2022-11-21T22:16:40.669Z,-1.45
2022-11-21T22:19:07.842Z,-1.56
2022-11-21T22:21:36.242Z,-1.44
2022-11-21T22:26:51.739Z,-1.52
2022-11-21T22:29:18.477Z,-1.59
2022-11-21T22:31:45.123Z,-1.55
2022-11-21T22:34:13.549Z,-1.40
2022-11-21T22:36:40.386Z,-1.42
2022-11-21T22:39:07.098Z,-1.51
2022-11-21T22:41:33.737Z,-1.42
2022-11-21T22:44:00.543Z,-1.44
2022-11-21T22:46:29.063Z,-1.45
2022-11-21T22:48:55.654Z,-1.49
2022-11-21T22:51:24.785Z,-1.39
2022-11-21T22:53:51.863Z,-1.47
2022-11-21T22:56:20.672Z,-1.48
2022-11-21T22:58:47.920Z,-1.47
2022-11-21T23:01:25.577Z,-1.48
2022-11-21T23:03:55.633Z,-1.46
2022-11-21T23:06:24.291Z,-1.59
2022-11-21T23:08:52.227Z,-1.43
2022-11-21T23:11:22.891Z,-1.50
2022-11-21T23:13:49.653Z,-1.50
2022-11-21T23:16:16.747Z,-1.58
2022-11-21T23:18:43.544Z,-1.57
2022-11-21T23:21:10.996Z,-1.82
2022-11-21T23:23:38.105Z,-1.66
2022-11-21T23:26:05.774Z,-1.69
2022-11-21T23:28:32.851Z,-1.62
2022-11-21T23:30:59.893Z,-1.56
2022-11-21T23:33:26.473Z,-1.52
2022-11-21T23:35:53.159Z,-1.47
2022-11-21T23:38:20.973Z,-1.50
2022-11-21T23:40:48.470Z,-1.45
2022-11-21T23:43:15.868Z,-1.51
2022-11-21T23:45:43.577Z,-1.67
2022-11-21T23:48:10.253Z,-1.75
2022-11-21T23:50:37.225Z,-1.67
2022-11-21T23:53:03.869Z,-1.61
2022-11-21T23:55:30.452Z,-1.71
2022-11-21T23:57:57.093Z,-1.63
